Latest Weather Observations for Walgett

IDN60801

Issued at 9:52 pm EST Tuesday 4 August 2020 (issued every 10 minutes, with the page automatically refreshed every 10 minutes)

About weather observations | Map of weather stations | Latest weather observations for NSW | Other Formats
Station Details ID: 052088 Name: WALGETT AIRPORT AWS Lat: -30.04 Lon: 148.12 Height: 133.0 m
Data from the previous 72 hours. | See also: Recent months at Walgett
Date/Time
EST
Temp
°C
App
Temp
°C
Dew
Point
°C
Rel
Hum
%
Delta-T
°C
Wind Press
QNH
hPa
Press
MSL
hPa
Rain since
9am
mm
Dir  Spd
km/h
Gust
km/h
Spd
kts
Gust
kts
04/09:30pm 9.2 6.0 6.8 85 1.1 S 13 17 7 9 1015.3 1015.3 0.0
04/09:00pm 10.3 6.5 7.4 82 1.4 S 17 19 9 10 1015.0 1015.0 0.0
04/08:30pm 10.8 6.5 7.1 78 1.8 S 19 24 10 13 1014.6 1014.6 0.0
04/08:00pm 9.4 4.9 4.4 71 2.2 S 17 19 9 10 1014.3 1014.3 0.0
04/07:30pm 13.0 9.2 3.9 54 4.1 SSW 13 24 7 13 1013.9 1013.9 0.0
04/07:00pm 12.8 9.5 2.6 50 4.5 WSW 9 9 5 5 1013.5 1013.5 0.0
04/06:30pm 14.2 11.4 2.1 44 5.3 SW 6 7 3 4 1013.2 1013.2 0.0
04/06:00pm 16.4 13.6 2.1 38 6.4 WSW 6 7 3 4 1013.0 1013.0 0.0
04/05:30pm 18.3 15.1 3.0 36 7.1 WSW 9 11 5 6 1012.9 1012.9 0.0
04/05:00pm 20.7 17.3 3.9 33 8.1 SW 11 17 6 9 1012.7 1012.7 0.0
04/04:30pm 21.4 17.8 3.1 30 8.7 WSW 11 15 6 8 1012.5 1012.5 0.0
04/04:00pm 22.7 17.3 1.1 24 10.0 WSW 19 26 10 14 1012.3 1012.3 0.0
04/03:30pm 23.1 17.6 2.0 25 10.0 WSW 20 28 11 15 1012.4 1012.4 0.0
04/03:00pm 22.5 16.9 1.5 25 9.8 WSW 20 30 11 16 1012.4 1012.4 0.0
04/02:30pm 24.2 18.4 2.4 24 10.5 WSW 22 32 12 17 1012.5 1012.5 0.0
04/02:00pm 22.9 17.2 0.7 23 10.3 W 20 32 11 17 1012.7 1012.7 0.0
04/01:30pm 23.5 17.5 1.2 23 10.4 W 22 33 12 18 1013.0 1013.0 0.0
04/01:00pm 23.5 18.1 2.4 25 10.1 W 20 32 11 17 1013.2 1013.2 0.0
04/12:30pm 23.7 18.4 3.1 26 10.0 W 20 30 11 16 1013.6 1013.6 0.0
04/12:00pm 22.9 18.9 4.9 31 9.0 NNW 15 20 8 11 1014.3 1014.3 0.0
04/11:30am 22.0 17.3 5.0 33 8.5 NNW 19 22 10 12 1014.6 1014.6 0.0
04/11:00am 21.0 17.2 5.8 37 7.6 NW 15 20 8 11 1014.8 1014.8 0.0
04/10:30am 19.3 15.9 6.1 42 6.6 NW 13 17 7 9 1015.1 1015.1 0.0
04/10:00am 17.5 15.0 6.4 48 5.5 NW 9 13 5 7 1015.3 1015.3 0.0
04/09:30am 15.6 13.0 6.3 54 4.5 NNW 9 13 5 7 1015.3 1015.3 0.0
04/09:00am 13.1 9.9 5.3 59 3.7 NNW 11 13 6 7 1015.4 1015.4 0.0
04/08:30am 9.1 8.1 5.7 79 1.6 CALM 0 4 0 2 1015.4 1015.4 0.0
04/08:00am 5.9 4.7 4.4 90 0.6 CALM 0 0 0 0 1015.4 1015.4 0.0
04/07:30am 2.2 0.4 1.3 94 0.3 CALM 0 0 0 0 1015.4 1015.4 0.0
04/07:00am 0.7 -2.6 -0.2 94 0.3 S 7 9 4 5 1015.4 1015.4 0.0
04/06:30am 0.5 -2.9 -0.8 91 0.5 S 7 9 4 5 1015.4 1015.4 0.0
04/06:00am 1.2 -2.0 -0.4 89 0.6 SSW 6 7 3 4 1015.2 1015.2 0.0
04/05:30am 2.2 -1.0 -0.2 84 0.9 NE 6 9 3 5 1014.9 1014.9 0.0
04/05:00am 4.3 1.3 2.0 85 0.9 NE 7 9 4 5 1014.8 1014.8 0.0
04/04:30am 4.7 1.4 2.7 87 0.8 NNE 9 13 5 7 1014.9 1014.9 0.0
04/04:00am 4.8 1.1 2.3 84 1.0 NNE 11 13 6 7 1015.1 1015.1 0.0
04/03:30am 4.8 1.5 2.7 86 0.9 NE 9 13 5 7 1015.2 1015.2 0.0
04/03:00am 4.3 1.0 2.5 88 0.7 ENE 9 9 5 5 1015.2 1015.2 0.0
04/02:30am 3.8 0.9 1.7 86 0.8 E 6 9 3 5 1015.6 1015.6 0.0
04/02:00am 5.2 2.3 2.4 82 1.1 ENE 7 9 4 5 1016.0 1016.1 0.0
04/01:30am 6.2 4.8 3.7 84 1.1 CALM 0 0 0 0 1016.3 1016.4 0.0
04/01:00am 4.9 1.9 2.3 83 1.1 ENE 7 9 4 5 1016.3 1016.4 0.0
04/12:30am 4.9 1.2 2.6 85 0.9 ENE 11 13 6 7 1016.4 1016.5 0.0
04/12:00am 4.7 1.8 2.4 85 0.9 ESE 7 9 4 5 1016.4 1016.5 0.0
 
Date/Time
EST
Temp
°C
App
Temp
°C
Dew
Point
°C
Rel
Hum
%
Delta-T
°C
Wind Press
QNH
hPa
Press
MSL
hPa
Rain since
9am
mm
Dir  Spd
km/h
Gust
km/h
Spd
kts
Gust
kts
03/11:30pm 4.4 1.4 2.1 85 0.9 SSE 7 9 4 5 1016.6 1016.7 0.0
03/11:00pm 5.1 1.8 2.5 83 1.1 S 9 11 5 6 1016.7 1016.8 0.0
03/10:30pm 5.4 2.2 2.8 83 1.1 SSW 9 11 5 6 1016.7 1016.8 0.0
03/10:00pm 6.7 4.9 3.7 81 1.3 E 2 7 1 4 1016.7 1016.8 0.0
03/09:30pm 7.1 4.9 3.5 78 1.5 ESE 4 7 2 4 1016.9 1017.0 0.0
03/09:00pm 9.0 6.0 4.0 71 2.2 ENE 9 9 5 5 1016.9 1017.0 0.0
03/08:30pm 9.2 6.5 3.6 68 2.4 ENE 7 11 4 6 1016.8 1016.9 0.0
03/08:00pm 10.8 7.4 4.0 63 3.0 E 11 13 6 7 1016.7 1016.8 0.0
03/07:30pm 11.3 7.7 5.0 65 2.9 E 13 17 7 9 1016.5 1016.6 0.0
03/07:00pm 10.1 7.2 4.7 69 2.4 E 9 13 5 7 1016.5 1016.6 0.0
03/06:30pm 11.6 9.4 6.1 69 2.6 SSE 7 9 4 5 1016.5 1016.6 0.0
03/06:00pm 14.1 11.5 6.2 59 3.8 SSE 9 11 5 6 1016.4 1016.5 0.0
03/05:30pm 15.4 12.9 6.7 56 4.3 SSE 9 13 5 7 1016.4 1016.5 0.0
03/05:00pm 18.6 15.9 5.8 43 6.3 SSW 9 13 5 7 1016.4 1016.5 0.0
03/04:30pm 20.9 17.6 2.2 29 8.7 SSW 9 13 5 7 1016.5 1016.6 0.0
03/04:00pm 21.3 17.2 2.1 28 9.0 SSW 13 17 7 9 1016.5 1016.6 0.0
03/03:30pm 21.9 18.1 1.6 26 9.5 WSW 11 17 6 9 1016.5 1016.6 0.0
03/03:00pm 22.0 18.0 0.5 24 9.8 WSW 11 17 6 9 1016.7 1016.8 0.0
03/02:30pm 21.9 18.8 3.6 30 8.9 WSW 9 13 5 7 1017.1 1017.2 0.0
03/02:00pm 21.9 17.6 3.1 29 9.0 WNW 15 22 8 12 1017.6 1017.6 0.0
03/01:30pm 22.0 17.6 0.5 24 9.8 NW 13 22 7 12 1018.1 1018.1 0.0
03/01:00pm 22.1 18.1 2.8 28 9.2 WNW 13 26 7 14 1018.6 1018.6 0.0
03/12:30pm 20.9 17.5 4.0 33 8.2 NNW 11 20 6 11 1019.3 1019.3 0.0
03/12:00pm 20.2 17.6 6.2 40 7.0 N 9 15 5 8 1019.9 1019.9 0.0
03/11:30am 19.4 16.1 6.5 43 6.5 N 13 19 7 10 1020.3 1020.3 0.0
03/11:00am 18.4 15.5 6.6 46 5.9 N 11 17 6 9 1020.8 1020.8 0.0
03/10:30am 17.2 14.4 7.0 51 5.1 NNE 11 17 6 9 1021.2 1021.2 0.0
03/10:00am 16.3 13.6 7.5 56 4.4 ENE 11 15 6 8 1021.5 1021.5 0.0
03/09:30am 14.0 10.9 7.1 63 3.4 NNE 13 17 7 9 1021.6 1021.6 0.0
03/09:00am 12.0 8.9 7.3 73 2.3 NNE 13 20 7 11 1021.9 1021.9 0.0
03/08:30am 8.7 6.5 7.9 95 0.4 NE 9 11 5 6 1021.9 1021.9 0.0
03/08:00am 5.0 3.4 4.7 98 0.1 NNE 2 6 1 3 1021.8 1021.8 0.0
03/07:30am 3.4 0.2 3.1 98 0.1 NNE 9 9 5 5 1021.6 1021.6 0.0
03/07:24am 2.8 -0.5 2.5 98 0.1 NNE 9 13 5 7 1021.4 1021.4 0.0
03/07:05am 1.0 -2.1 0.3 95 0.3 NNE 6 7 3 4 1021.4 1021.4 0.0
03/07:00am 1.0 -2.1 0.4 96 0.2 NNE 6 6 3 3 1021.3 1021.3 0.0
03/06:30am 2.2 -0.8 1.8 97 0.2 NNE 7 7 4 4 1021.1 1021.1 0.0
03/06:00am 1.8 -1.2 1.1 95 0.3 NNE 6 7 3 4 1020.9 1020.9 0.0
03/05:30am 1.8 -1.3 1.1 95 0.3 NNE 7 9 4 5 1020.6 1020.6 0.0
03/05:00am 2.2 -0.9 1.5 95 0.3 N 7 9 4 5 1020.4 1020.4 0.0
03/04:30am 2.8 0.8 2.1 95 0.3 N 2 6 1 3 1020.5 1020.5 0.0
03/04:00am 3.0 1.4 2.4 96 0.2 CALM 0 6 0 3 1020.6 1020.6 0.0
03/03:30am 3.3 0.6 2.7 96 0.2 N 6 7 3 4 1020.6 1020.6 0.0
03/03:00am 3.7 2.3 3.3 97 0.2 CALM 0 0 0 0 1020.8 1020.8 0.0
03/02:30am 3.1 1.1 2.5 96 0.2 WSW 2 6 1 3 1021.1 1021.1 0.0
03/02:00am 2.7 -0.3 2.1 96 0.2 SSW 7 9 4 5 1021.7 1021.7 0.0
03/01:30am 2.8 0.4 2.1 95 0.3 ESE 4 7 2 4 1021.4 1021.4 0.0
03/01:00am 3.4 0.7 2.7 95 0.3 ESE 6 11 3 6 1021.6 1021.6 0.0
03/12:30am 3.7 0.5 3.0 95 0.3 ESE 9 11 5 6 1021.7 1021.7 0.0
03/12:00am 3.8 0.6 3.2 96 0.2 SE 9 11 5 6 1022.0 1022.0 0.0
 
Date/Time
EST
Temp
°C
App
Temp
°C
Dew
Point
°C
Rel
Hum
%
Delta-T
°C
Wind Press
QNH
hPa
Press
MSL
hPa
Rain since
9am
mm
Dir  Spd
km/h
Gust
km/h
Spd
kts
Gust
kts
02/11:43pm 3.6 0.8 2.9 95 0.3 SE 7 9 4 5 1022.1 1022.2 0.0
02/11:30pm 3.2 0.8 2.3 94 0.4 SE 4 9 2 5 1022.2 1022.3 0.0
02/11:19pm 4.4 3.0 3.7 95 0.3 CALM 0 0 0 0 1022.2 1022.3 0.0
02/11:00pm 4.4 3.0 3.7 95 0.3 CALM 0 0 0 0 1022.2 1022.3 0.0
02/10:30pm 4.9 3.5 3.6 91 0.5 CALM 0 0 0 0 1022.4 1022.5 0.0
02/10:00pm 5.4 2.8 3.3 86 0.9 SE 6 7 3 4 1022.2 1022.3 0.0
02/09:30pm 7.1 5.3 5.6 90 0.7 SE 4 6 2 3 1022.3 1022.4 0.0
02/09:00pm 7.7 5.6 5.7 87 0.9 SE 6 6 3 3 1022.4 1022.5 0.0
02/08:30pm 7.7 5.5 5.3 85 1.1 SE 6 7 3 4 1022.5 1022.6 0.0
02/08:00pm 8.3 6.6 6.1 86 1.0 SE 4 7 2 4 1022.4 1022.5 0.0
02/07:30pm 9.0 7.0 6.1 82 1.3 SE 6 7 3 4 1022.4 1022.5 0.0
02/07:00pm 10.1 7.2 6.6 79 1.6 SSE 11 13 6 7 1022.5 1022.6 0.0
02/06:30pm 10.6 7.7 6.6 76 1.9 SSE 11 13 6 7 1022.6 1022.7 0.0
02/06:00pm 12.3 9.4 6.6 68 2.7 S 11 13 6 7 1022.5 1022.6 0.0
02/05:30pm 14.5 12.1 7.1 61 3.6 SSE 9 13 5 7 1022.5 1022.6 0.0
02/05:00pm 17.0 14.7 7.6 54 4.7 SSE 9 11 5 6 1022.5 1022.6 0.0
02/04:30pm 18.5 15.7 7.0 47 5.8 S 11 13 6 7 1022.5 1022.6 0.0
02/04:00pm 19.0 15.7 6.2 43 6.4 S 13 17 7 9 1022.5 1022.6 0.0
02/03:30pm 19.5 16.2 6.3 42 6.6 S 13 15 7 8 1022.5 1022.6 0.0
02/03:00pm 19.6 16.8 7.0 44 6.4 S 11 15 6 8 1022.7 1022.8 0.0
02/02:30pm 19.8 16.9 4.7 37 7.4 S 9 13 5 7 1022.8 1022.9 0.0
02/02:00pm 19.9 17.4 6.6 42 6.7 SSE 9 13 5 7 1023.0 1023.1 0.0
02/01:30pm 19.3 16.2 5.4 40 6.8 SSE 11 15 6 8 1023.2 1023.3 0.0
02/01:00pm 19.1 16.5 5.9 42 6.5 SE 9 15 5 8 1023.5 1023.6 0.0
02/12:30pm 18.4 15.8 5.9 44 6.2 SE 9 13 5 7 1024.1 1024.2 0.0
02/12:00pm 17.9 15.6 5.8 45 5.9 SE 7 11 4 6 1024.8 1024.9 0.0
02/11:30am 17.5 15.2 7.3 51 5.1 ESE 9 13 5 7 1025.3 1025.3 0.0
02/11:00am 16.9 14.6 7.5 54 4.7 E 9 13 5 7 1025.8 1025.8 0.0
02/10:30am 16.0 14.2 8.0 59 4.1 ENE 7 11 4 6 1026.1 1026.1 0.0
02/10:00am 14.7 12.6 8.4 66 3.2 ENE 9 11 5 6 1026.3 1026.3 0.0
02/09:30am 12.7 10.6 8.2 74 2.2 ENE 9 11 5 6 1026.4 1026.4 0.0
02/09:00am 9.9 8.3 8.0 88 0.9 ENE 6 9 3 5 1026.3 1026.3 0.0
02/08:30am 7.2 5.4 7.1 99 0.0 E 6 9 3 5 1026.0 1026.0 0.0
02/08:18am 6.1 4.8 6.0 99 0.0 ESE 2 6 1 3 1025.9 1025.9 0.0
02/08:16am 5.8 4.4 5.7 99 0.0 SE 2 6 1 3 1025.9 1025.9 0.0
02/08:00am 4.0 2.7 3.9 99 0.0 CALM 0 0 0 0 1025.8 1025.8 0.0
02/07:36am 1.6 -0.2 1.5 99 0.0 CALM 0 0 0 0 1025.8 1025.8 0.0
02/07:35am 1.7 0.0 1.6 99 0.0 CALM 0 0 0 0 1025.8 1025.8 0.0
02/07:30am 1.4 -0.4 1.3 99 0.0 CALM 0 0 0 0 1025.7 1025.7 0.0
02/07:00am -0.2 -3.4 -0.5 98 0.1 SSE 6 7 3 4 1025.4 1025.4 0.0
02/06:30am -0.3 -2.4 -0.7 97 0.1 CALM 0 0 0 0 1024.9 1025.0 0.0
02/06:08am 0.9 -1.0 0.6 98 0.1 CALM 0 0 0 0 1024.7 1024.8 0.0
02/06:00am 1.0 -0.9 0.7 98 0.1 CALM 0 0 0 0 1024.7 1024.8 0.0
02/05:49am 1.1 -0.8 0.8 98 0.1 CALM 0 0 0 0 1024.5 1024.6 0.0
02/05:30am 1.8 0.0 1.5 98 0.1 CALM 0 0 0 0 1024.3 1024.4 0.0
02/05:20am 1.7 -0.1 1.4 98 0.1 CALM 0 0 0 0 1024.3 1024.4 0.0
02/05:00am 1.6 -0.2 1.2 97 0.2 CALM 0 0 0 0 1024.2 1024.3 0.0
02/04:30am 1.2 -0.7 0.6 96 0.2 CALM 0 0 0 0 1024.3 1024.4 0.0
02/04:00am 2.9 1.3 2.5 97 0.2 CALM 0 0 0 0 1024.2 1024.3 0.0
02/03:40am 3.2 1.7 2.9 98 0.1 CALM 0 0 0 0 1024.3 1024.4 0.0
02/03:30am 3.4 1.9 3.0 97 0.2 CALM 0 0 0 0 1024.3 1024.4 0.0
02/03:00am 4.0 2.7 3.9 99 0.0 CALM 0 0 0 0 1024.3 1024.4 0.0
02/02:30am 4.4 3.1 4.0 97 0.2 CALM 0 0 0 0 1024.5 1024.6 0.0
02/02:00am 4.1 1.3 3.4 95 0.3 SSE 7 9 4 5 1024.6 1024.7 0.0
02/01:30am 5.2 2.3 4.6 96 0.3 SSE 9 11 5 6 1024.9 1025.0 0.0
02/01:00am 5.1 1.8 4.5 96 0.3 S 11 13 6 7 1025.2 1025.2 0.0
02/12:30am 4.1 0.3 3.7 97 0.2 S 13 13 7 7 1025.4 1025.4 0.0
02/12:04am 5.0 2.1 4.9 99 0.0 SSE 9 11 5 6 1025.4 1025.4 0.0
02/12:00am 4.9 2.0 4.8 99 0.0 SSE 9 11 5 6 1025.4 1025.4 0.0
 
Date/Time
EST
Temp
°C
App
Temp
°C
Dew
Point
°C
Rel
Hum
%
Delta-T
°C
Wind Press
QNH
hPa
Press
MSL
hPa
Rain since
9am
mm
Dir  Spd
km/h
Gust
km/h
Spd
kts
Gust
kts
01/11:30pm 4.4 1.9 3.8 96 0.3 SSE 6 7 3 4 1025.4 1025.4 0.0
01/11:00pm 4.8 2.3 3.9 94 0.4 SSE 6 7 3 4 1025.2 1025.2 0.0
01/10:41pm 4.7 2.1 3.2 90 0.6 SSE 6 7 3 4 1025.3 1025.3 0.0
01/10:30pm 5.4 3.0 4.2 92 0.5 SSE 6 7 3 4 1025.3 1025.3 0.0
01/10:00pm 6.6 4.4 5.2 91 0.6 SSE 6 7 3 4 1024.9 1025.0 0.0

Other formats

Comma delimited format used in spreadsheet applications
http://www.bom.gov.au/fwo/IDN60801/IDN60801.95715.axf

JavaScript Object Notation format (JSON) in row-major order
http://www.bom.gov.au/fwo/IDN60801/IDN60801.95715.json

Data quality

Most of these data are generated automatically and are frequently updated. Quality checks on data are not normally performed. It is possible for incorrect values to appear. Refer to information at About Latest Weather Observations and please check the disclaimer before using these data.